createdAt,value
2018-08-19T00:01:51.477Z,18.40
2018-08-19T00:04:19.748Z,18.40
2018-08-19T00:06:47.930Z,18.40
2018-08-19T00:09:17.051Z,18.40
2018-08-19T00:11:46.588Z,18.30
2018-08-19T00:14:27.964Z,18.30
2018-08-19T00:16:58.594Z,18.30
2018-08-19T00:19:27.088Z,18.20
2018-08-19T00:21:55.523Z,18.20
2018-08-19T00:24:23.733Z,18.20
2018-08-19T00:26:51.954Z,18.10
2018-08-19T00:29:25.565Z,18.10
2018-08-19T00:31:54.601Z,18.10
2018-08-19T00:34:28.037Z,18.10
2018-08-19T00:36:56.369Z,18.00
2018-08-19T00:39:24.698Z,18.00
2018-08-19T00:41:52.909Z,18.00
2018-08-19T00:44:21.184Z,18.00
2018-08-19T00:46:49.407Z,18.00
2018-08-19T00:49:17.620Z,17.90
2018-08-19T00:51:51.079Z,17.90
2018-08-19T00:54:19.290Z,17.90
2018-08-19T00:56:48.882Z,17.90
2018-08-19T00:59:17.092Z,17.90
2018-08-19T01:01:45.456Z,17.80
2018-08-19T01:04:13.665Z,17.80
2018-08-19T01:06:55.254Z,17.80
2018-08-19T01:09:26.831Z,17.80
2018-08-19T01:11:55.114Z,17.80
2018-08-19T01:14:23.340Z,17.80
2018-08-19T01:16:51.668Z,17.70
2018-08-19T01:19:20.146Z,17.70
2018-08-19T01:21:49.162Z,17.70
2018-08-19T01:24:17.401Z,17.60
2018-08-19T01:26:45.606Z,17.60
2018-08-19T01:29:14.125Z,17.60
2018-08-19T01:31:42.514Z,17.60
2018-08-19T01:34:12.016Z,17.60
2018-08-19T01:36:40.197Z,17.60
2018-08-19T01:39:09.988Z,17.60
2018-08-19T01:41:38.988Z,17.60
2018-08-19T01:44:11.516Z,17.60
2018-08-19T01:46:45.051Z,17.60
2018-08-19T01:49:13.252Z,17.60
2018-08-19T01:51:42.367Z,17.60
2018-08-19T01:54:26.012Z,17.60
2018-08-19T01:56:56.130Z,17.50
2018-08-19T01:59:27.305Z,17.50
2018-08-19T02:01:58.285Z,17.50
2018-08-19T02:04:26.445Z,17.50
2018-08-19T02:06:54.669Z,17.50
2018-08-19T02:09:23.056Z,17.40
2018-08-19T02:11:56.106Z,17.40
2018-08-19T02:14:24.629Z,17.40
2018-08-19T02:16:53.584Z,17.40
2018-08-19T02:19:21.785Z,17.30
2018-08-19T02:21:50.683Z,17.30
2018-08-19T02:24:19.008Z,17.30
2018-08-19T02:26:47.159Z,17.30
2018-08-19T02:29:29.773Z,17.20
2018-08-19T02:32:00.436Z,17.20
2018-08-19T02:34:38.396Z,17.20
2018-08-19T02:37:08.350Z,17.20
2018-08-19T02:39:39.318Z,17.20
2018-08-19T02:42:20.548Z,17.20
2018-08-19T02:44:48.735Z,17.10
2018-08-19T02:47:17.274Z,17.10
2018-08-19T02:49:45.477Z,17.00
2018-08-19T02:52:17.932Z,17.00
2018-08-19T02:54:46.091Z,17.00
2018-08-19T02:57:14.233Z,17.00
2018-08-19T02:59:42.392Z,16.90
2018-08-19T03:02:21.896Z,17.00
2018-08-19T03:04:50.523Z,16.90
2018-08-19T03:07:18.709Z,16.90
2018-08-19T03:09:46.834Z,16.90
2018-08-19T03:12:15.059Z,16.90
2018-08-19T03:14:43.237Z,16.80
2018-08-19T03:17:11.750Z,16.80
2018-08-19T03:19:39.919Z,16.80
2018-08-19T03:22:08.084Z,16.80
2018-08-19T03:24:36.250Z,16.80
2018-08-19T03:27:04.593Z,16.70
2018-08-19T03:29:33.244Z,16.70
2018-08-19T03:32:01.907Z,16.70
2018-08-19T03:34:31.249Z,16.70
2018-08-19T03:36:59.503Z,16.70
2018-08-19T03:39:27.787Z,16.70
2018-08-19T03:41:56.017Z,16.70
2018-08-19T03:44:24.236Z,16.70
2018-08-19T03:46:52.536Z,16.70
2018-08-19T03:49:21.553Z,16.60
2018-08-19T03:51:49.818Z,16.60
2018-08-19T03:54:17.988Z,16.60
2018-08-19T03:56:46.139Z,16.60
2018-08-19T03:59:14.337Z,16.60
2018-08-19T04:01:44.688Z,16.50
2018-08-19T04:04:14.974Z,16.50
2018-08-19T04:06:43.323Z,16.50
2018-08-19T04:09:11.516Z,16.50
2018-08-19T04:11:39.665Z,16.50
2018-08-19T04:14:23.357Z,16.50
2018-08-19T04:16:51.591Z,16.50
2018-08-19T04:19:19.843Z,16.40
2018-08-19T04:21:47.988Z,16.40
2018-08-19T04:24:16.162Z,16.40
2018-08-19T04:26:44.353Z,16.40
2018-08-19T04:29:17.696Z,16.40
2018-08-19T04:31:45.964Z,16.40
2018-08-19T04:34:14.133Z,16.40
2018-08-19T04:36:42.318Z,16.40
2018-08-19T04:39:10.447Z,16.40
2018-08-19T04:41:38.798Z,16.50
2018-08-19T04:44:06.960Z,16.50
2018-08-19T04:46:35.210Z,16.60
2018-08-19T04:49:03.536Z,16.60
2018-08-19T04:51:31.753Z,16.60
2018-08-19T04:54:02.135Z,16.60
2018-08-19T04:56:30.441Z,16.60
2018-08-19T04:58:58.849Z,16.60
2018-08-19T05:01:26.985Z,16.60
2018-08-19T05:03:55.162Z,16.70
2018-08-19T05:06:23.389Z,16.70
2018-08-19T05:08:51.583Z,16.90
2018-08-19T05:11:19.832Z,16.90
2018-08-19T05:13:48.071Z,17.10
2018-08-19T05:16:16.340Z,17.20
2018-08-19T05:18:49.992Z,17.30
2018-08-19T05:21:18.399Z,17.40
2018-08-19T05:23:46.956Z,17.50
2018-08-19T05:26:15.159Z,17.60
2018-08-19T05:28:52.482Z,17.70
2018-08-19T05:31:20.769Z,17.90
2018-08-19T05:33:48.964Z,18.00
2018-08-19T05:36:17.221Z,18.20
2018-08-19T05:38:46.224Z,18.30
2018-08-19T05:41:14.423Z,18.40
2018-08-19T05:43:42.673Z,18.50
2018-08-19T05:46:10.937Z,18.60
2018-08-19T05:48:39.147Z,18.70
2018-08-19T05:51:07.368Z,18.80
2018-08-19T05:53:37.381Z,18.90
2018-08-19T05:56:05.600Z,19.00
2018-08-19T05:58:33.875Z,19.00
2018-08-19T06:01:02.169Z,19.20
2018-08-19T06:03:30.387Z,19.20
2018-08-19T06:05:58.865Z,19.30
2018-08-19T06:08:27.088Z,19.30
2018-08-19T06:10:55.408Z,19.30
2018-08-19T06:13:23.581Z,19.40
2018-08-19T06:15:51.941Z,19.50
2018-08-19T06:18:20.075Z,19.60
2018-08-19T06:20:48.279Z,19.60
2018-08-19T06:23:16.541Z,19.70
2018-08-19T06:25:44.812Z,19.80
2018-08-19T06:28:13.265Z,19.80
2018-08-19T06:30:41.700Z,19.90
2018-08-19T06:33:10.215Z,20.00
2018-08-19T06:35:38.429Z,20.10
2018-08-19T06:38:06.573Z,20.10
2018-08-19T06:40:34.781Z,20.20
2018-08-19T06:43:03.102Z,20.30
2018-08-19T06:45:31.343Z,20.40
2018-08-19T06:47:59.548Z,20.50
2018-08-19T06:50:30.351Z,20.50
2018-08-19T06:52:58.671Z,20.60
2018-08-19T06:55:26.917Z,20.60
2018-08-19T06:57:56.347Z,20.70
2018-08-19T07:00:25.237Z,20.70
2018-08-19T07:02:53.624Z,20.80
2018-08-19T07:05:21.841Z,20.90
2018-08-19T07:07:50.012Z,20.90
2018-08-19T07:10:24.831Z,21.00
2018-08-19T07:12:57.287Z,21.10
2018-08-19T07:15:25.650Z,21.10
2018-08-19T07:17:54.297Z,21.20
2018-08-19T07:20:22.458Z,21.30
2018-08-19T07:22:50.726Z,21.30
2018-08-19T07:25:18.908Z,21.30
2018-08-19T07:27:47.109Z,21.40
2018-08-19T07:30:15.310Z,21.50
2018-08-19T07:32:43.594Z,21.50
2018-08-19T07:35:11.862Z,21.50
2018-08-19T07:37:40.061Z,21.60
2018-08-19T07:40:08.303Z,21.60
2018-08-19T07:42:36.535Z,21.70
2018-08-19T07:45:05.074Z,21.80
2018-08-19T07:47:33.291Z,22.00
2018-08-19T07:50:01.535Z,22.10
2018-08-19T07:52:29.829Z,22.20
2018-08-19T07:54:57.983Z,22.30
2018-08-19T07:57:27.637Z,22.40
2018-08-19T07:59:55.847Z,22.40
2018-08-19T08:02:25.405Z,22.40
2018-08-19T08:04:53.719Z,22.50
2018-08-19T08:07:21.968Z,22.60
2018-08-19T08:09:50.333Z,22.60
2018-08-19T08:12:18.592Z,22.60
2018-08-19T08:14:51.641Z,22.60
2018-08-19T08:17:20.315Z,22.60
2018-08-19T08:19:53.980Z,22.60
2018-08-19T08:22:22.232Z,22.70
2018-08-19T08:24:50.498Z,22.70
2018-08-19T08:27:19.466Z,22.60
2018-08-19T08:29:47.822Z,22.70
2018-08-19T08:32:16.411Z,22.80
2018-08-19T08:34:44.681Z,22.90
2018-08-19T08:37:13.159Z,23.00
2018-08-19T08:39:41.399Z,23.00
2018-08-19T08:42:10.019Z,23.10
2018-08-19T08:44:38.234Z,23.10
2018-08-19T08:47:10.823Z,23.20
2018-08-19T08:49:47.358Z,23.20
2018-08-19T08:52:20.956Z,23.20
2018-08-19T08:54:53.383Z,23.30
2018-08-19T08:57:22.792Z,23.30
2018-08-19T08:59:51.385Z,23.30
2018-08-19T09:02:19.725Z,23.40
2018-08-19T09:04:48.312Z,23.30
2018-08-19T09:07:16.649Z,23.10
2018-08-19T09:09:46.024Z,23.00
2018-08-19T09:12:14.791Z,22.90
2018-08-19T09:14:43.619Z,23.00
2018-08-19T09:17:11.960Z,23.00
2018-08-19T09:19:41.112Z,23.10
2018-08-19T09:22:09.649Z,23.20
2018-08-19T09:24:38.166Z,23.30
2018-08-19T09:27:06.373Z,23.30
2018-08-19T09:29:34.561Z,23.30
2018-08-19T09:32:02.781Z,23.30
2018-08-19T09:34:30.963Z,23.50
2018-08-19T09:37:00.499Z,23.60
2018-08-19T09:39:29.150Z,23.70
2018-08-19T09:42:02.770Z,23.80
2018-08-19T09:44:31.093Z,23.90
2018-08-19T09:46:59.372Z,24.10
2018-08-19T09:49:28.234Z,24.10
2018-08-19T09:51:56.761Z,24.10
2018-08-19T09:54:34.799Z,24.10
2018-08-19T09:57:03.897Z,24.10
2018-08-19T09:59:32.171Z,24.10
2018-08-19T10:02:05.017Z,24.10
2018-08-19T10:04:33.917Z,24.20
2018-08-19T10:07:07.480Z,24.30
2018-08-19T10:09:35.785Z,24.40
2018-08-19T10:12:04.293Z,24.40
2018-08-19T10:14:32.628Z,24.50
2018-08-19T10:17:00.842Z,24.40
2018-08-19T10:19:29.061Z,24.50
2018-08-19T10:21:57.381Z,24.40
2018-08-19T10:24:28.292Z,24.40
2018-08-19T10:26:56.761Z,24.40
2018-08-19T10:29:25.075Z,24.30
2018-08-19T10:31:57.694Z,24.10
2018-08-19T10:34:28.153Z,24.10
2018-08-19T10:36:56.955Z,24.00
2018-08-19T10:39:25.715Z,24.10
2018-08-19T10:42:07.829Z,24.10
2018-08-19T10:44:36.167Z,24.10
2018-08-19T10:47:04.836Z,24.20
2018-08-19T10:49:33.058Z,24.30
2018-08-19T10:52:01.439Z,24.40
2018-08-19T10:54:29.619Z,24.50
2018-08-19T10:56:59.892Z,24.60
2018-08-19T10:59:28.104Z,24.60
2018-08-19T11:01:56.449Z,24.60
2018-08-19T11:04:24.648Z,24.50
2018-08-19T11:06:52.836Z,24.60
2018-08-19T11:09:21.088Z,24.60
2018-08-19T11:11:49.289Z,24.60
2018-08-19T11:14:17.668Z,24.70
2018-08-19T11:16:45.937Z,24.80
2018-08-19T11:19:14.169Z,24.80
2018-08-19T11:21:42.469Z,24.80
2018-08-19T11:24:23.441Z,24.90
2018-08-19T11:27:00.987Z,24.80
2018-08-19T11:29:29.606Z,24.80
2018-08-19T11:31:57.999Z,24.90
2018-08-19T11:34:30.596Z,24.90
2018-08-19T11:36:59.321Z,25.00
2018-08-19T11:39:33.118Z,25.00
2018-08-19T11:42:01.908Z,24.90
2018-08-19T11:44:30.208Z,24.80
2018-08-19T11:46:58.704Z,24.80
2018-08-19T11:49:26.912Z,24.90
2018-08-19T11:51:59.560Z,24.90
2018-08-19T11:54:28.450Z,25.00
2018-08-19T11:57:04.252Z,25.10
2018-08-19T11:59:38.672Z,25.20
2018-08-19T12:02:09.256Z,25.30
2018-08-19T12:04:37.562Z,25.30
2018-08-19T12:07:05.874Z,25.40
2018-08-19T12:09:34.695Z,25.50
2018-08-19T12:12:03.177Z,25.60
2018-08-19T12:14:33.852Z,25.70
2018-08-19T12:17:02.528Z,25.80
2018-08-19T12:19:31.828Z,25.90
2018-08-19T12:22:04.121Z,25.90
2018-08-19T12:24:39.140Z,25.90
2018-08-19T12:27:08.857Z,25.80
2018-08-19T12:29:38.431Z,25.70
2018-08-19T12:32:12.105Z,25.60
2018-08-19T12:34:43.105Z,25.50
2018-08-19T12:37:12.886Z,25.50
2018-08-19T12:39:40.948Z,25.60
2018-08-19T12:42:09.245Z,25.70
2018-08-19T12:44:37.808Z,25.80
2018-08-19T12:47:15.636Z,25.90
2018-08-19T12:49:52.621Z,25.90
2018-08-19T12:52:22.676Z,25.90
2018-08-19T12:54:57.356Z,25.80
2018-08-19T12:57:26.041Z,25.70
2018-08-19T13:00:01.673Z,25.70
2018-08-19T13:02:42.959Z,25.60
2018-08-19T13:05:11.566Z,25.70
2018-08-19T13:07:39.765Z,25.70
2018-08-19T13:10:08.710Z,25.70
2018-08-19T13:12:43.460Z,25.70
2018-08-19T13:15:11.666Z,25.70
2018-08-19T13:17:41.849Z,25.80
2018-08-19T13:20:10.089Z,25.80
2018-08-19T13:22:48.720Z,25.80
2018-08-19T13:25:17.694Z,25.70
2018-08-19T13:27:45.896Z,25.80
2018-08-19T13:30:14.135Z,25.80
2018-08-19T13:32:42.928Z,25.90
2018-08-19T13:35:11.316Z,26.00
2018-08-19T13:37:39.585Z,26.00
2018-08-19T13:40:09.395Z,26.00
2018-08-19T13:42:37.772Z,25.90
2018-08-19T13:45:10.381Z,25.80
2018-08-19T13:47:39.347Z,25.80
2018-08-19T13:50:07.585Z,25.70
2018-08-19T13:52:35.938Z,25.60
2018-08-19T13:55:05.720Z,25.60
2018-08-19T13:57:34.079Z,25.50
2018-08-19T14:00:02.371Z,25.50
2018-08-19T14:02:30.667Z,25.50
2018-08-19T14:04:59.041Z,25.50
2018-08-19T14:07:27.300Z,25.50
2018-08-19T14:09:55.494Z,25.50
2018-08-19T14:12:23.850Z,25.60
2018-08-19T14:14:51.961Z,25.60
2018-08-19T14:17:20.240Z,25.60
2018-08-19T14:19:48.417Z,25.70
2018-08-19T14:22:16.883Z,25.70
2018-08-19T14:24:45.232Z,25.70
2018-08-19T14:27:13.589Z,25.60
2018-08-19T14:29:41.993Z,25.70
2018-08-19T14:32:24.671Z,25.60
2018-08-19T14:34:52.945Z,25.70
2018-08-19T14:37:21.229Z,25.70
2018-08-19T14:39:49.412Z,25.80
2018-08-19T14:42:17.724Z,25.70
2018-08-19T14:44:46.280Z,25.80
2018-08-19T14:47:14.492Z,25.70
2018-08-19T14:49:42.810Z,25.80
2018-08-19T14:52:11.070Z,25.80
2018-08-19T14:54:39.352Z,25.80
2018-08-19T14:57:08.051Z,25.90
2018-08-19T14:59:36.446Z,25.90
2018-08-19T15:02:04.779Z,25.90
2018-08-19T15:04:33.248Z,26.00
2018-08-19T15:07:01.565Z,26.10
2018-08-19T15:09:32.185Z,26.10
2018-08-19T15:12:07.800Z,26.10
2018-08-19T15:14:36.507Z,26.10
2018-08-19T15:17:07.108Z,26.00
2018-08-19T15:19:35.660Z,25.90
2018-08-19T15:22:04.040Z,25.90
2018-08-19T15:24:32.337Z,26.00
2018-08-19T15:27:00.619Z,26.00
2018-08-19T15:29:29.504Z,25.90
2018-08-19T15:31:58.876Z,25.90
2018-08-19T15:34:27.332Z,25.90
2018-08-19T15:36:55.572Z,25.80
2018-08-19T15:39:23.849Z,25.80
2018-08-19T15:41:52.045Z,25.70
2018-08-19T15:44:20.306Z,25.70
2018-08-19T15:46:48.833Z,25.70
2018-08-19T15:49:19.569Z,25.70
2018-08-19T15:51:47.849Z,25.70
2018-08-19T15:54:16.375Z,25.70
2018-08-19T15:56:44.744Z,25.70
2018-08-19T15:59:13.499Z,25.60
2018-08-19T16:01:41.774Z,25.70
2018-08-19T16:04:28.437Z,25.60
2018-08-19T16:06:56.685Z,25.60
2018-08-19T16:09:26.215Z,25.60
2018-08-19T16:11:54.795Z,25.60
2018-08-19T16:14:32.570Z,25.60
2018-08-19T16:17:02.088Z,25.60
2018-08-19T16:19:30.496Z,25.50
2018-08-19T16:21:59.793Z,25.50
2018-08-19T16:24:28.437Z,25.50
2018-08-19T16:26:56.669Z,25.50
2018-08-19T16:29:25.415Z,25.40
2018-08-19T16:31:53.966Z,25.40
2018-08-19T16:34:22.022Z,25.40
2018-08-19T16:36:50.666Z,25.30
2018-08-19T16:39:19.035Z,25.30
2018-08-19T16:41:48.389Z,25.30
2018-08-19T16:44:17.225Z,25.30
2018-08-19T16:46:46.093Z,25.30
2018-08-19T16:49:14.676Z,25.30
2018-08-19T16:51:42.983Z,25.20
2018-08-19T16:54:11.225Z,25.20
2018-08-19T16:56:39.592Z,25.20
2018-08-19T16:59:07.988Z,25.10
2018-08-19T17:01:36.585Z,25.10
2018-08-19T17:04:04.807Z,25.10
2018-08-19T17:06:33.050Z,25.00
2018-08-19T17:09:01.199Z,25.00
2018-08-19T17:11:29.490Z,24.90
2018-08-19T17:13:57.769Z,24.90
2018-08-19T17:16:26.189Z,24.90
2018-08-19T17:18:54.819Z,24.90
2018-08-19T17:21:23.029Z,24.80
2018-08-19T17:23:51.830Z,24.70
2018-08-19T17:26:21.379Z,24.70
2018-08-19T17:28:49.668Z,24.70
2018-08-19T17:31:17.924Z,24.60
2018-08-19T17:33:46.357Z,24.50
2018-08-19T17:36:23.741Z,24.50
2018-08-19T17:38:51.946Z,24.40
2018-08-19T17:41:20.209Z,24.40
2018-08-19T17:43:48.530Z,24.30
2018-08-19T17:46:19.285Z,24.20
2018-08-19T17:48:47.811Z,24.20
2018-08-19T17:51:27.309Z,24.20
2018-08-19T17:53:55.538Z,24.20
2018-08-19T17:56:23.806Z,24.20
2018-08-19T17:58:52.055Z,24.20
2018-08-19T18:01:20.450Z,24.20
2018-08-19T18:03:48.674Z,24.20
2018-08-19T18:06:17.003Z,24.10
2018-08-19T18:08:48.740Z,24.10
2018-08-19T18:11:17.020Z,24.00
2018-08-19T18:13:45.707Z,24.00
2018-08-19T18:16:15.141Z,23.90
2018-08-19T18:18:43.647Z,23.90
2018-08-19T18:21:11.969Z,23.80
2018-08-19T18:23:43.692Z,23.70
2018-08-19T18:26:11.944Z,23.70
2018-08-19T18:28:42.805Z,23.60
2018-08-19T18:31:11.014Z,23.60
2018-08-19T18:33:48.085Z,23.50
2018-08-19T18:36:16.524Z,23.50
2018-08-19T18:38:44.810Z,23.50
2018-08-19T18:41:18.328Z,23.40
2018-08-19T18:43:49.412Z,23.30
2018-08-19T18:46:17.742Z,23.10
2018-08-19T18:48:45.962Z,23.00
2018-08-19T18:51:14.157Z,22.90
2018-08-19T18:53:42.548Z,22.80
2018-08-19T18:56:10.779Z,22.70
2018-08-19T18:58:40.588Z,22.60
2018-08-19T19:01:09.892Z,22.60
2018-08-19T19:03:39.105Z,22.60
2018-08-19T19:06:07.914Z,22.50
2018-08-19T19:08:36.218Z,22.40
2018-08-19T19:11:04.432Z,22.30
2018-08-19T19:13:33.090Z,22.30
2018-08-19T19:16:01.275Z,22.20
2018-08-19T19:18:29.844Z,22.20
2018-08-19T19:21:01.941Z,22.10
2018-08-19T19:23:39.999Z,22.00
2018-08-19T19:26:08.911Z,21.90
2018-08-19T19:28:37.234Z,21.80
2018-08-19T19:31:11.015Z,21.70
2018-08-19T19:33:39.197Z,21.70
2018-08-19T19:36:12.851Z,21.60
2018-08-19T19:38:53.935Z,21.50
2018-08-19T19:41:25.853Z,21.50
2018-08-19T19:43:54.036Z,21.40
2018-08-19T19:46:22.476Z,21.40
2018-08-19T19:48:50.917Z,21.40
2018-08-19T19:51:19.186Z,21.40
2018-08-19T19:53:47.497Z,21.30
2018-08-19T19:56:17.181Z,21.30
2018-08-19T19:58:46.373Z,21.30
2018-08-19T20:01:15.205Z,21.30
2018-08-19T20:03:48.709Z,21.30
2018-08-19T20:06:17.810Z,21.30
2018-08-19T20:08:46.031Z,21.30
2018-08-19T20:11:19.411Z,21.40
2018-08-19T20:13:48.275Z,21.40
2018-08-19T20:16:16.590Z,21.40
2018-08-19T20:18:44.802Z,21.40
2018-08-19T20:21:18.293Z,21.40
2018-08-19T20:23:46.532Z,21.30
2018-08-19T20:26:14.948Z,21.30
2018-08-19T20:28:43.173Z,21.20
2018-08-19T20:31:11.403Z,21.20
2018-08-19T20:33:39.605Z,21.10
2018-08-19T20:36:07.918Z,21.10
2018-08-19T20:38:36.342Z,21.10
2018-08-19T20:41:04.578Z,21.10
2018-08-19T20:43:32.824Z,21.20
2018-08-19T20:46:01.298Z,21.30
2018-08-19T20:48:29.547Z,21.40
2018-08-19T20:50:57.849Z,21.40
2018-08-19T20:53:26.124Z,21.50
2018-08-19T20:55:54.422Z,21.50
2018-08-19T20:58:22.679Z,21.60
2018-08-19T21:00:51.065Z,21.60
2018-08-19T21:03:19.291Z,21.70
2018-08-19T21:05:47.606Z,21.70
2018-08-19T21:08:18.004Z,21.70
2018-08-19T21:10:47.032Z,21.80
2018-08-19T21:13:16.514Z,21.90
2018-08-19T21:15:50.344Z,21.90
2018-08-19T21:18:18.638Z,21.90
2018-08-19T21:20:46.887Z,22.00
2018-08-19T21:23:15.297Z,21.90
2018-08-19T21:25:49.919Z,22.00
2018-08-19T21:28:18.740Z,22.00
2018-08-19T21:30:47.124Z,22.00
2018-08-19T21:33:15.308Z,22.00
2018-08-19T21:35:48.981Z,22.10
2018-08-19T21:38:17.230Z,22.10
2018-08-19T21:40:45.423Z,22.10
2018-08-19T21:43:13.723Z,22.10
2018-08-19T21:45:42.236Z,22.10
2018-08-19T21:48:11.924Z,22.10
2018-08-19T21:50:40.390Z,22.00
2018-08-19T21:53:10.571Z,22.00
2018-08-19T21:55:40.236Z,22.10
2018-08-19T21:58:08.740Z,22.10
2018-08-19T22:00:38.300Z,22.10
2018-08-19T22:03:14.646Z,22.00
2018-08-19T22:05:42.949Z,22.10
2018-08-19T22:08:11.255Z,22.10
2018-08-19T22:10:39.607Z,22.00
2018-08-19T22:13:08.129Z,22.00
2018-08-19T22:15:37.161Z,22.00
2018-08-19T22:18:06.145Z,22.10
2018-08-19T22:20:34.884Z,22.10
2018-08-19T22:23:04.289Z,22.10
2018-08-19T22:25:32.600Z,22.10
2018-08-19T22:28:00.933Z,22.20
2018-08-19T22:30:30.139Z,22.10
2018-08-19T22:32:58.909Z,22.10
2018-08-19T22:35:30.072Z,22.10
2018-08-19T22:37:59.656Z,22.10
2018-08-19T22:40:33.093Z,22.00
2018-08-19T22:43:01.415Z,22.10
2018-08-19T22:45:29.857Z,22.00
2018-08-19T22:47:58.080Z,22.00
2018-08-19T22:50:28.096Z,22.00
2018-08-19T22:52:56.309Z,22.00
2018-08-19T22:55:24.643Z,22.00
2018-08-19T22:57:54.284Z,22.00
2018-08-19T23:00:25.346Z,22.00
2018-08-19T23:02:53.587Z,22.00
2018-08-19T23:05:21.850Z,21.90
2018-08-19T23:07:50.166Z,21.90
2018-08-19T23:10:18.459Z,21.90
2018-08-19T23:12:46.668Z,21.90
2018-08-19T23:15:26.268Z,21.80
2018-08-19T23:26:27.719Z,21.60
2018-08-19T23:31:46.797Z,21.60
2018-08-19T23:34:15.020Z,21.50
2018-08-19T23:36:43.341Z,21.50
2018-08-19T23:39:11.558Z,21.50
2018-08-19T23:41:39.798Z,21.50
2018-08-19T23:44:08.299Z,21.50
2018-08-19T23:46:36.667Z,21.50
2018-08-19T23:49:05.094Z,21.50
2018-08-19T23:51:33.348Z,21.50
2018-08-19T23:54:02.519Z,21.40
2018-08-19T23:56:31.187Z,21.40
2018-08-19T23:58:59.812Z,21.40
